Terminal Aerodrome Forecast
Issued by NWS

Home | Current Version | Previous Version | Text Only | Print | Product List | Glossary On
Versions: 1 2 3 4 5 6 7 8 9 10 11 12 13 14 15 16 17 18 19 20 21 22 23 24 25 26 27 28 29 30 31 32 33 34 35 36 37 38 39
000
FTUS43 KGLD 190540
TAFMCK
TAF
KMCK 190540Z 1906/2006 01010KT P6SM -RA OVC060
     FM190800 34015G25KT 5SM -RA BR OVC015
     FM191200 35023G33KT 3SM -RA OVC008
     FM191500 35025G38KT P6SM -RA BKN030
     FM191800 35027G40KT P6SM BKN060
     FM200100 33012KT P6SM SKC=

USA.gov is the U.S. government's official web portal to all federal, state and local government web resources and services.